createdAt,value
2022-09-11T00:02:01.422Z,16.19
2022-09-11T00:04:33.327Z,16.15
2022-09-11T00:07:02.524Z,15.91
2022-09-11T00:09:33.075Z,16.21
2022-09-11T00:12:02.660Z,16.19
2022-09-11T00:14:31.905Z,16.20
2022-09-11T00:17:01.081Z,16.18
2022-09-11T00:19:30.370Z,16.07
2022-09-11T00:21:59.523Z,16.09
2022-09-11T00:24:28.739Z,16.02
2022-09-11T00:26:59.390Z,16.10
2022-09-11T00:29:29.982Z,16.04
2022-09-11T00:31:59.133Z,16.07
2022-09-11T00:34:28.542Z,16.00
2022-09-11T00:36:58.201Z,16.00
2022-09-11T00:39:27.564Z,15.95
2022-09-11T00:41:58.599Z,15.95
2022-09-11T00:45:03.832Z,15.93
2022-09-11T00:47:33.659Z,15.83
2022-09-11T00:50:13.523Z,15.78
2022-09-11T00:52:53.177Z,15.82
2022-09-11T00:55:27.390Z,15.83
2022-09-11T00:58:03.029Z,15.73
2022-09-11T01:00:32.660Z,15.71
2022-09-11T01:03:03.267Z,15.73
2022-09-11T01:05:34.949Z,15.74
2022-09-11T01:08:04.696Z,15.71
2022-09-11T01:10:47.975Z,15.68
2022-09-11T01:13:29.138Z,15.61
2022-09-11T01:16:10.706Z,15.50
2022-09-11T01:18:47.111Z,15.53
2022-09-11T01:21:53.486Z,15.54
2022-09-11T01:24:56.500Z,15.36
2022-09-11T01:27:45.854Z,15.56
2022-09-11T01:30:18.800Z,15.47
2022-09-11T01:33:23.190Z,15.51
2022-09-11T01:36:01.435Z,15.46
2022-09-11T01:38:41.856Z,15.50
2022-09-11T01:41:20.520Z,15.51
2022-09-11T01:44:00.641Z,15.48
2022-09-11T01:46:36.311Z,15.42
2022-09-11T01:49:16.957Z,15.37
2022-09-11T01:51:59.283Z,15.34
2022-09-11T01:54:42.795Z,15.27
2022-09-11T01:57:38.268Z,15.26
2022-09-11T02:00:14.606Z,15.29
2022-09-11T02:03:01.939Z,15.22
2022-09-11T03:34:18.030Z,15.36
2022-09-11T03:36:49.160Z,15.40
2022-09-11T03:39:18.385Z,15.30
2022-09-11T03:41:47.912Z,15.35
2022-09-11T03:44:17.832Z,15.33
2022-09-11T03:46:47.399Z,15.33
2022-09-11T03:49:18.196Z,15.43
2022-09-11T03:51:48.117Z,15.45
2022-09-11T03:54:17.838Z,15.44
2022-09-11T03:56:48.678Z,15.37
2022-09-11T03:59:20.125Z,15.44
2022-09-11T04:01:51.023Z,15.50
2022-09-11T04:04:23.182Z,15.45
2022-09-11T04:06:53.067Z,15.46
2022-09-11T04:09:22.242Z,15.49
2022-09-11T04:11:54.254Z,15.46
2022-09-11T04:14:28.848Z,15.48
2022-09-11T04:17:00.747Z,15.38
2022-09-11T04:19:32.502Z,15.44
2022-09-11T04:22:02.098Z,15.38
2022-09-11T04:24:31.742Z,15.38
2022-09-11T04:27:01.784Z,15.31
2022-09-11T04:29:32.620Z,15.38
2022-09-11T04:32:03.536Z,14.96
2022-09-11T04:34:38.266Z,15.29
2022-09-11T04:37:08.354Z,15.27
2022-09-11T04:39:41.360Z,15.22
2022-09-11T04:42:11.054Z,15.27
2022-09-11T04:44:42.173Z,15.28
2022-09-11T04:47:11.374Z,15.28
2022-09-11T04:49:43.244Z,15.30
2022-09-11T04:52:12.973Z,15.32
2022-09-11T04:54:42.346Z,15.33
2022-09-11T04:57:14.108Z,15.38
2022-09-11T04:59:43.285Z,15.35
2022-09-11T05:02:15.221Z,15.42
2022-09-11T05:04:49.510Z,15.34
2022-09-11T05:07:19.539Z,15.56
2022-09-11T05:09:54.526Z,15.65
2022-09-11T05:12:24.346Z,15.49
2022-09-11T05:14:53.549Z,15.65
2022-09-11T05:17:22.862Z,15.74
2022-09-11T05:19:53.520Z,15.92
2022-09-11T05:22:25.115Z,15.98
2022-09-11T05:24:58.685Z,16.02
2022-09-11T05:27:28.363Z,16.06
2022-09-11T05:29:58.241Z,16.02
2022-09-11T05:32:27.553Z,16.03
2022-09-11T05:34:59.617Z,15.97
2022-09-11T05:37:29.082Z,15.98
2022-09-11T05:39:58.898Z,16.01
2022-09-11T05:42:28.728Z,15.63
2022-09-11T05:44:58.423Z,15.90
2022-09-11T05:47:29.408Z,16.05
2022-09-11T05:50:00.288Z,16.06
2022-09-11T05:52:30.639Z,16.06
2022-09-11T05:54:59.899Z,16.09
2022-09-11T05:57:29.099Z,15.76
2022-09-11T05:59:58.912Z,16.23
2022-09-11T06:02:28.553Z,16.18
2022-09-11T06:04:59.625Z,16.28
2022-09-11T06:07:28.841Z,16.26
2022-09-11T06:10:02.993Z,16.46
2022-09-11T06:12:35.140Z,16.55
2022-09-11T06:15:04.650Z,16.59
2022-09-11T06:17:33.855Z,16.37
2022-09-11T06:20:05.169Z,16.54
2022-09-11T06:22:37.789Z,16.73
2022-09-11T06:25:07.987Z,16.80
2022-09-11T06:27:37.223Z,16.81
2022-09-11T06:30:09.066Z,16.76
2022-09-11T06:32:40.226Z,16.80
2022-09-11T06:35:11.759Z,16.80
2022-09-11T06:37:41.346Z,16.93
2022-09-11T06:40:13.549Z,17.01
2022-09-11T06:42:43.003Z,17.04
2022-09-11T06:45:12.922Z,17.21
2022-09-11T06:47:43.313Z,17.11
2022-09-11T06:50:14.807Z,17.19
2022-09-11T06:53:02.415Z,17.20
2022-09-11T06:55:32.881Z,17.36
2022-09-11T06:58:08.883Z,17.40
2022-09-11T07:00:38.691Z,17.40
2022-09-11T07:03:08.117Z,17.25
2022-09-11T07:05:40.165Z,17.46
2022-09-11T07:08:09.477Z,17.46
2022-09-11T07:10:39.308Z,17.51
2022-09-11T07:13:09.061Z,17.54
2022-09-11T07:15:38.775Z,17.57
2022-09-11T07:18:08.585Z,17.37
2022-09-11T07:20:42.563Z,17.53
2022-09-11T07:23:13.002Z,17.56
2022-09-11T07:25:43.494Z,17.58
2022-09-11T07:28:12.630Z,17.44
2022-09-11T07:30:42.410Z,17.45
2022-09-11T07:33:11.883Z,17.45
2022-09-11T07:35:42.617Z,17.35
2022-09-11T07:38:11.911Z,17.32
2022-09-11T07:40:44.212Z,17.37
2022-09-11T07:43:13.950Z,17.46
2022-09-11T07:45:43.905Z,17.46
2022-09-11T07:48:13.605Z,17.46
2022-09-11T07:50:44.226Z,17.47
2022-09-11T07:53:13.658Z,17.40
2022-09-11T07:55:43.713Z,17.45
2022-09-11T07:58:13.640Z,17.39
2022-09-11T08:00:43.287Z,17.39
2022-09-11T08:03:20.044Z,17.48
2022-09-11T08:05:50.904Z,17.40
2022-09-11T08:08:21.244Z,17.38
2022-09-11T08:10:51.052Z,17.46
2022-09-11T08:13:21.897Z,17.50
2022-09-11T08:15:52.264Z,17.41
2022-09-11T08:18:22.737Z,17.49
2022-09-11T08:20:54.662Z,17.55
2022-09-11T08:23:24.049Z,17.61
2022-09-11T08:25:53.926Z,17.61
2022-09-11T08:28:25.180Z,17.67
2022-09-11T08:31:02.055Z,17.78
2022-09-11T08:33:33.420Z,17.79
2022-09-11T08:36:12.200Z,17.87
2022-09-11T08:38:44.996Z,17.98
2022-09-11T08:41:41.220Z,17.99
2022-09-11T08:44:22.208Z,18.06
2022-09-11T08:46:58.544Z,18.10
2022-09-11T08:49:30.773Z,18.21
2022-09-11T08:52:07.209Z,18.30
2022-09-11T08:54:40.307Z,18.27
2022-09-11T08:57:20.765Z,18.35
2022-09-11T09:00:15.223Z,18.50
2022-09-11T09:03:19.238Z,18.61
2022-09-11T09:05:57.969Z,18.70
2022-09-11T09:08:44.941Z,18.76
2022-09-11T09:11:30.495Z,18.88
2022-09-11T09:14:18.535Z,18.85
2022-09-11T09:16:54.572Z,18.89
2022-09-11T09:19:31.754Z,18.92
2022-09-11T09:22:13.579Z,18.95
2022-09-11T09:24:51.040Z,18.92
2022-09-11T09:27:28.377Z,18.95
2022-09-11T09:30:03.377Z,18.90
2022-09-11T09:32:40.670Z,18.76
2022-09-11T09:35:18.080Z,18.89
2022-09-11T09:37:48.765Z,18.95
2022-09-11T09:40:20.423Z,18.97
2022-09-11T09:43:30.190Z,18.96
2022-09-11T09:46:16.909Z,18.87
2022-09-11T09:48:46.184Z,18.82
2022-09-11T09:51:16.317Z,18.83
2022-09-11T09:53:50.130Z,18.87
2022-09-11T09:56:23.789Z,18.83
2022-09-11T09:59:02.871Z,18.86
2022-09-11T10:01:48.478Z,18.73
2022-09-11T10:04:22.344Z,18.68
2022-09-11T10:06:53.983Z,18.63
2022-09-11T10:09:29.784Z,18.55
2022-09-11T10:12:03.668Z,18.55
2022-09-11T10:14:54.189Z,18.42
2022-09-11T10:17:32.298Z,18.26
2022-09-11T10:20:27.002Z,18.27
2022-09-11T10:22:57.306Z,18.20
2022-09-11T10:25:30.091Z,18.16
2022-09-11T10:28:06.403Z,18.14
2022-09-11T10:30:39.177Z,18.15
2022-09-11T10:33:19.944Z,18.07
2022-09-11T10:35:55.240Z,18.01
2022-09-11T10:38:30.903Z,17.94
2022-09-11T10:41:09.557Z,18.07
2022-09-11T10:43:56.067Z,18.05
2022-09-11T10:46:38.768Z,18.00
2022-09-11T10:49:25.907Z,17.98
2022-09-11T10:52:06.296Z,17.99
2022-09-11T10:54:53.386Z,18.01
2022-09-11T10:57:29.150Z,18.02
2022-09-11T11:00:09.898Z,18.04
2022-09-11T11:02:42.172Z,17.94
2022-09-11T11:05:26.254Z,18.01
2022-09-11T11:08:28.002Z,17.92
2022-09-11T11:11:15.299Z,17.98
2022-09-11T11:14:17.229Z,17.66
2022-09-11T11:16:59.708Z,17.68
2022-09-11T11:19:52.956Z,17.62
2022-09-11T11:22:37.246Z,17.56
2022-09-11T11:25:23.078Z,17.55
2022-09-11T11:28:13.518Z,17.55
2022-09-11T11:30:53.295Z,17.46
2022-09-11T11:33:47.131Z,17.27
2022-09-11T11:36:28.542Z,17.34
2022-09-11T11:39:03.421Z,17.25
2022-09-11T11:41:39.515Z,17.34
2022-09-11T11:44:15.903Z,17.45
2022-09-11T11:46:50.000Z,17.32
2022-09-11T11:49:28.407Z,17.34
2022-09-11T11:52:06.518Z,17.36
2022-09-11T11:54:46.653Z,17.41
2022-09-11T11:57:22.376Z,17.46
2022-09-11T12:00:00.249Z,17.61
2022-09-11T12:02:38.618Z,17.55
2022-09-11T12:05:14.445Z,17.39
2022-09-11T12:07:43.812Z,17.56
2022-09-11T12:10:31.084Z,17.49
2022-09-11T12:13:03.696Z,17.51
2022-09-11T12:15:35.857Z,17.51
2022-09-11T12:18:21.036Z,17.33
2022-09-11T12:20:51.723Z,17.65
2022-09-11T12:23:56.364Z,17.53
2022-09-11T12:26:27.749Z,17.71
2022-09-11T12:29:51.865Z,17.73
2022-09-11T12:32:42.130Z,17.74
2022-09-11T12:35:34.964Z,17.66
2022-09-11T12:38:22.091Z,17.75
2022-09-11T12:40:56.519Z,17.75
2022-09-11T12:43:46.770Z,17.59
2022-09-11T12:47:12.132Z,17.75
2022-09-11T12:49:43.947Z,17.87
2022-09-11T12:52:29.233Z,17.97
2022-09-11T12:55:05.762Z,17.89
2022-09-11T12:57:38.890Z,17.83
2022-09-11T13:00:22.932Z,17.93
2022-09-11T13:02:57.843Z,17.98
2022-09-11T13:05:34.693Z,17.87
2022-09-11T13:08:08.234Z,17.89
2022-09-11T13:10:40.534Z,17.94
2022-09-11T13:13:44.628Z,17.84
2022-09-11T13:16:24.356Z,18.05
2022-09-11T13:19:09.430Z,18.02
2022-09-11T13:21:40.861Z,18.21
2022-09-11T13:24:25.581Z,18.27
2022-09-11T13:26:59.867Z,18.27
2022-09-11T13:29:32.698Z,18.40
2022-09-11T13:32:11.495Z,18.40
2022-09-11T13:34:45.276Z,18.59
2022-09-11T13:37:20.917Z,18.76
2022-09-11T13:39:50.262Z,18.99
2022-09-11T13:42:25.818Z,19.12
2022-09-11T13:44:58.156Z,19.14
2022-09-11T13:47:31.542Z,19.29
2022-09-11T13:50:03.565Z,19.43
2022-09-11T13:52:35.695Z,19.58
2022-09-11T13:55:12.630Z,19.63
2022-09-11T13:57:56.574Z,19.64
2022-09-11T14:00:44.951Z,19.74
2022-09-11T14:03:22.829Z,19.82
2022-09-11T14:05:55.229Z,19.72
2022-09-11T14:08:32.569Z,19.81
2022-09-11T14:11:10.990Z,19.82
2022-09-11T14:13:50.590Z,19.86
2022-09-11T14:16:27.170Z,19.99
2022-09-11T14:19:00.863Z,19.97
2022-09-11T14:21:35.871Z,20.04
2022-09-11T14:24:23.359Z,20.10
2022-09-11T14:26:52.707Z,20.00
2022-09-11T14:29:29.201Z,19.95
2022-09-11T14:32:35.103Z,20.11
2022-09-11T14:35:06.641Z,20.13
2022-09-11T14:37:43.735Z,20.01
2022-09-11T14:40:17.953Z,20.11
2022-09-11T14:42:48.102Z,20.17
2022-09-11T14:45:23.980Z,20.15
2022-09-11T14:47:53.537Z,20.19
2022-09-11T14:50:24.753Z,19.98
2022-09-11T14:52:54.090Z,20.20
2022-09-11T14:55:23.371Z,20.32
2022-09-11T14:57:52.605Z,20.35
2022-09-11T15:00:23.479Z,20.34
2022-09-11T15:02:52.894Z,20.55
2022-09-11T15:05:24.725Z,20.56
2022-09-11T15:07:54.064Z,20.78
2022-09-11T15:10:23.859Z,20.85
2022-09-11T15:12:53.021Z,20.89
2022-09-11T15:15:29.283Z,21.01
2022-09-11T15:17:58.521Z,21.17
2022-09-11T15:20:27.883Z,21.29
2022-09-11T15:22:57.894Z,21.35
2022-09-11T15:25:27.106Z,21.48
2022-09-11T15:27:56.301Z,21.58
2022-09-11T15:30:25.874Z,21.57
2022-09-11T15:32:56.844Z,21.63
2022-09-11T15:35:28.499Z,21.61
2022-09-11T15:38:05.850Z,21.57
2022-09-11T15:40:36.978Z,21.63
2022-09-11T15:43:06.240Z,21.66
2022-09-11T15:45:35.588Z,21.66
2022-09-11T15:48:06.299Z,21.59
2022-09-11T15:50:35.690Z,21.69
2022-09-11T15:53:05.047Z,21.70
2022-09-11T15:55:35.615Z,21.74
2022-09-11T15:58:04.901Z,21.73
2022-09-11T16:00:36.853Z,21.65
2022-09-11T16:03:07.924Z,21.80
2022-09-11T16:05:43.110Z,21.78
2022-09-11T16:08:13.128Z,21.82
2022-09-11T16:10:42.735Z,21.87
2022-09-11T16:13:12.031Z,21.75
2022-09-11T16:15:41.284Z,21.82
2022-09-11T16:18:12.183Z,21.85
2022-09-11T16:20:43.647Z,21.74
2022-09-11T16:23:13.225Z,21.81
2022-09-11T16:25:44.077Z,21.75
2022-09-11T16:28:13.364Z,21.86
2022-09-11T16:30:45.846Z,21.87
2022-09-11T16:33:18.273Z,21.73
2022-09-11T16:35:59.767Z,21.74
2022-09-11T16:38:30.290Z,21.82
2022-09-11T16:41:03.576Z,21.80
2022-09-11T16:43:32.786Z,21.84
2022-09-11T16:46:02.510Z,21.81
2022-09-11T16:48:34.021Z,21.75
2022-09-11T16:51:03.225Z,21.70
2022-09-11T16:53:35.397Z,21.63
2022-09-11T16:56:08.349Z,21.58
2022-09-11T16:58:42.315Z,21.64
2022-09-11T17:01:16.988Z,21.51
2022-09-11T17:03:51.186Z,21.60
2022-09-11T17:06:22.554Z,21.67
2022-09-11T17:08:55.033Z,21.57
2022-09-11T17:11:24.610Z,21.64
2022-09-11T17:13:56.885Z,21.64
2022-09-11T17:16:31.463Z,21.58
2022-09-11T17:19:03.059Z,21.62
2022-09-11T17:21:37.074Z,21.59
2022-09-11T17:24:07.980Z,21.50
2022-09-11T17:26:37.563Z,21.57
2022-09-11T17:29:08.351Z,21.55
2022-09-11T17:31:37.604Z,21.53
2022-09-11T17:34:17.172Z,21.43
2022-09-11T17:36:46.558Z,21.52
2022-09-11T17:39:16.087Z,21.51
2022-09-11T17:41:48.002Z,21.39
2022-09-11T17:44:17.475Z,21.47
2022-09-11T17:46:49.220Z,21.33
2022-09-11T17:49:22.267Z,21.40
2022-09-11T17:51:51.844Z,21.45
2022-09-11T17:54:22.205Z,21.48
2022-09-11T17:56:51.983Z,21.48
2022-09-11T17:59:21.334Z,21.53
2022-09-11T18:01:51.232Z,21.44
2022-09-11T18:04:22.568Z,21.28
2022-09-11T18:06:53.024Z,21.34
2022-09-11T18:09:22.516Z,21.25
2022-09-11T18:11:54.025Z,21.36
2022-09-11T18:14:27.571Z,21.23
2022-09-11T18:16:57.702Z,21.33
2022-09-11T18:19:28.426Z,21.12
2022-09-11T18:22:01.743Z,21.28
2022-09-11T18:24:31.411Z,21.30
2022-09-11T18:27:01.316Z,21.21
2022-09-11T18:29:30.853Z,21.22
2022-09-11T18:32:00.546Z,21.08
2022-09-11T18:34:32.366Z,21.17
2022-09-11T18:37:02.842Z,21.22
2022-09-11T18:39:32.228Z,21.16
2022-09-11T18:42:01.977Z,21.12
2022-09-11T18:44:31.291Z,21.01
2022-09-11T18:47:00.562Z,21.03
2022-09-11T18:49:31.111Z,21.10
2022-09-11T18:52:00.666Z,21.12
2022-09-11T18:54:30.430Z,20.96
2022-09-11T18:57:00.247Z,21.01
2022-09-11T18:59:29.727Z,21.05
2022-09-11T19:02:00.251Z,20.92
2022-09-11T19:04:31.485Z,20.93
2022-09-11T19:07:00.743Z,20.85
2022-09-11T19:09:29.968Z,20.86
2022-09-11T19:12:00.291Z,20.86
2022-09-11T19:14:30.661Z,20.87
2022-09-11T19:17:00.466Z,20.82
2022-09-11T19:19:31.158Z,20.89
2022-09-11T19:22:00.855Z,20.88
2022-09-11T19:24:30.772Z,20.88
2022-09-11T19:27:00.410Z,20.77
2022-09-11T19:29:29.924Z,20.79
2022-09-11T19:32:00.504Z,20.81
2022-09-11T19:34:34.053Z,20.80
2022-09-11T19:37:05.902Z,20.71
2022-09-11T19:39:35.261Z,20.68
2022-09-11T19:42:05.072Z,20.72
2022-09-11T19:44:34.543Z,20.73
2022-09-11T19:47:04.584Z,20.72
2022-09-11T19:49:35.194Z,20.72
2022-09-11T19:52:04.987Z,20.75
2022-09-11T19:54:35.510Z,20.73
2022-09-11T19:57:05.367Z,20.71
2022-09-11T19:59:34.890Z,20.60
2022-09-11T20:02:04.204Z,20.68
2022-09-11T20:04:34.989Z,20.65
2022-09-11T20:07:04.329Z,20.52
2022-09-11T20:09:34.072Z,20.69
2022-09-11T20:12:04.050Z,20.72
2022-09-11T20:14:33.222Z,20.70
2022-09-11T20:17:05.016Z,20.74
2022-09-11T20:19:35.751Z,20.64
2022-09-11T20:22:05.234Z,20.63
2022-09-11T20:24:34.661Z,20.61
2022-09-11T20:27:03.879Z,20.59
2022-09-11T20:29:33.124Z,20.55
2022-09-11T20:32:02.902Z,20.53
2022-09-11T20:34:32.436Z,20.52
2022-09-11T20:37:06.900Z,20.40
2022-09-11T20:39:44.303Z,20.55
2022-09-11T20:42:14.181Z,20.55
2022-09-11T20:44:45.531Z,20.49
2022-09-11T20:47:14.776Z,20.64
2022-09-11T20:49:46.454Z,20.65
2022-09-11T20:52:17.687Z,20.60
2022-09-11T20:54:48.610Z,20.51
2022-09-11T20:57:18.015Z,20.80
2022-09-11T20:59:47.309Z,20.79
2022-09-11T21:02:17.738Z,20.84
2022-09-11T21:04:49.050Z,20.77
2022-09-11T21:07:19.657Z,20.76
2022-09-11T21:09:49.041Z,20.81
2022-09-11T21:12:18.546Z,20.83
2022-09-11T21:14:47.763Z,20.79
2022-09-11T21:17:16.978Z,20.83
2022-09-11T21:19:46.245Z,20.90
2022-09-11T21:22:15.621Z,20.81
2022-09-11T21:24:46.507Z,20.83
2022-09-11T21:27:15.735Z,20.98
2022-09-11T21:29:44.984Z,20.97
2022-09-11T21:32:14.263Z,20.84
2022-09-11T21:34:43.538Z,20.85
2022-09-11T21:37:13.450Z,20.89
2022-09-11T21:39:42.835Z,20.91
2022-09-11T21:42:13.531Z,20.66
2022-09-11T21:44:42.746Z,20.71
2022-09-11T21:47:12.013Z,20.88
2022-09-11T21:49:41.234Z,20.94
2022-09-11T21:52:10.436Z,20.98
2022-09-11T21:54:39.845Z,20.91
2022-09-11T21:57:09.111Z,20.82
2022-09-11T21:59:39.952Z,20.81
2022-09-11T22:02:09.220Z,20.89
2022-09-11T22:04:38.683Z,20.78
2022-09-11T22:07:07.959Z,20.78
2022-09-11T22:09:37.272Z,20.65
2022-09-11T22:12:06.936Z,20.82
2022-09-11T22:14:36.416Z,20.78
2022-09-11T22:17:07.176Z,20.73
2022-09-11T22:19:36.381Z,20.75
2022-09-11T22:22:06.773Z,20.71
2022-09-11T22:24:35.967Z,20.62
2022-09-11T22:27:05.496Z,20.67
2022-09-11T22:29:34.713Z,20.72
2022-09-11T22:32:04.416Z,20.72
2022-09-11T22:34:38.263Z,20.75
2022-09-11T22:37:07.642Z,20.72
2022-09-11T22:39:36.956Z,20.76
2022-09-11T22:42:06.579Z,20.76
2022-09-11T22:44:35.900Z,20.77
2022-09-11T22:47:05.738Z,20.70
2022-09-11T22:49:36.270Z,20.77
2022-09-11T22:52:05.631Z,20.68
2022-09-11T22:54:34.892Z,20.76
2022-09-11T22:57:04.215Z,20.72
2022-09-11T22:59:33.430Z,20.78
2022-09-11T23:02:03.213Z,20.85
2022-09-11T23:04:32.480Z,20.78
2022-09-11T23:07:17.149Z,20.77
2022-09-11T23:09:46.474Z,20.75
2022-09-11T23:12:15.659Z,20.79
2022-09-11T23:14:45.743Z,20.82
2022-09-11T23:17:15.166Z,20.83
2022-09-11T23:19:44.378Z,20.78
2022-09-11T23:22:14.873Z,20.78
2022-09-11T23:24:44.116Z,20.79
2022-09-11T23:27:13.374Z,20.68
2022-09-11T23:29:42.515Z,20.78
2022-09-11T23:32:11.771Z,20.79
2022-09-11T23:34:40.992Z,20.68
2022-09-11T23:37:10.183Z,20.68
2022-09-11T23:39:41.091Z,20.57
2022-09-11T23:42:10.406Z,20.42
2022-09-11T23:44:39.621Z,20.49
2022-09-11T23:47:09.048Z,20.52
2022-09-11T23:49:38.317Z,20.60
2022-09-11T23:52:07.611Z,20.61
2022-09-11T23:54:36.922Z,20.44
2022-09-11T23:57:08.102Z,20.59
2022-09-11T23:59:37.381Z,20.54
